sensor_id;sensor_type;location;lat;lon;timestamp;P1;durP1;ratioP1;P2;durP2;ratioP2
57047;SDS011;42934;54.294;18.598;2023-02-15T00:01:33;20.35;;;12.25;;
57047;SDS011;42934;54.294;18.598;2023-02-15T00:06:33;24.13;;;12.35;;
57047;SDS011;42934;54.294;18.598;2023-02-15T00:09:03;22.85;;;12.75;;
57047;SDS011;42934;54.294;18.598;2023-02-15T00:11:32;22.77;;;13.15;;
57047;SDS011;42934;54.294;18.598;2023-02-15T00:14:10;19.90;;;12.38;;
57047;SDS011;42934;54.294;18.598;2023-02-15T00:16:40;22.02;;;12.27;;
57047;SDS011;42934;54.294;18.598;2023-02-15T00:19:11;24.65;;;13.93;;
57047;SDS011;42934;54.294;18.598;2023-02-15T00:21:42;22.50;;;13.63;;
57047;SDS011;42934;54.294;18.598;2023-02-15T00:24:12;24.05;;;14.30;;
57047;SDS011;42934;54.294;18.598;2023-02-15T00:26:42;23.05;;;13.95;;
57047;SDS011;42934;54.294;18.598;2023-02-15T00:29:14;25.50;;;14.43;;
57047;SDS011;42934;54.294;18.598;2023-02-15T00:31:45;26.42;;;14.45;;
57047;SDS011;42934;54.294;18.598;2023-02-15T00:34:16;25.73;;;14.57;;
57047;SDS011;42934;54.294;18.598;2023-02-15T00:36:46;24.63;;;14.48;;
57047;SDS011;42934;54.294;18.598;2023-02-15T00:39:16;27.25;;;15.77;;
57047;SDS011;42934;54.294;18.598;2023-02-15T00:41:46;26.45;;;16.00;;
57047;SDS011;42934;54.294;18.598;2023-02-15T00:44:18;26.65;;;15.18;;
57047;SDS011;42934;54.294;18.598;2023-02-15T00:46:47;24.60;;;14.35;;
57047;SDS011;42934;54.294;18.598;2023-02-15T00:49:16;27.17;;;14.95;;
57047;SDS011;42934;54.294;18.598;2023-02-15T00:51:45;24.55;;;14.52;;
57047;SDS011;42934;54.294;18.598;2023-02-15T00:54:14;26.92;;;14.38;;
57047;SDS011;42934;54.294;18.598;2023-02-15T00:56:43;26.77;;;14.30;;
57047;SDS011;42934;54.294;18.598;2023-02-15T00:59:12;24.75;;;14.65;;
57047;SDS011;42934;54.294;18.598;2023-02-15T01:01:43;25.02;;;14.23;;
57047;SDS011;42934;54.294;18.598;2023-02-15T01:04:12;24.02;;;14.68;;
57047;SDS011;42934;54.294;18.598;2023-02-15T01:06:41;23.15;;;13.23;;
57047;SDS011;42934;54.294;18.598;2023-02-15T01:09:10;21.83;;;13.38;;
57047;SDS011;42934;54.294;18.598;2023-02-15T01:11:40;20.73;;;13.30;;
57047;SDS011;42934;54.294;18.598;2023-02-15T01:14:09;23.60;;;12.93;;
57047;SDS011;42934;54.294;18.598;2023-02-15T01:16:40;23.23;;;13.88;;
57047;SDS011;42934;54.294;18.598;2023-02-15T01:19:11;21.83;;;12.68;;
57047;SDS011;42934;54.294;18.598;2023-02-15T01:21:40;22.30;;;13.98;;
57047;SDS011;42934;54.294;18.598;2023-02-15T01:24:11;21.40;;;13.85;;
57047;SDS011;42934;54.294;18.598;2023-02-15T01:26:41;26.02;;;15.18;;
57047;SDS011;42934;54.294;18.598;2023-02-15T01:29:10;22.80;;;14.50;;
57047;SDS011;42934;54.294;18.598;2023-02-15T01:31:39;26.33;;;13.50;;
57047;SDS011;42934;54.294;18.598;2023-02-15T01:34:09;22.43;;;14.00;;
57047;SDS011;42934;54.294;18.598;2023-02-15T01:36:39;22.20;;;13.40;;
57047;SDS011;42934;54.294;18.598;2023-02-15T01:39:08;21.45;;;13.63;;
57047;SDS011;42934;54.294;18.598;2023-02-15T01:41:38;26.10;;;14.23;;
57047;SDS011;42934;54.294;18.598;2023-02-15T01:47:09;23.73;;;14.18;;
57047;SDS011;42934;54.294;18.598;2023-02-15T01:49:41;27.08;;;13.90;;
57047;SDS011;42934;54.294;18.598;2023-02-15T01:52:13;26.45;;;14.38;;
57047;SDS011;42934;54.294;18.598;2023-02-15T01:54:45;23.50;;;13.88;;
57047;SDS011;42934;54.294;18.598;2023-02-15T01:59:51;23.83;;;14.20;;
57047;SDS011;42934;54.294;18.598;2023-02-15T02:02:23;26.70;;;13.88;;
57047;SDS011;42934;54.294;18.598;2023-02-15T02:04:54;23.38;;;14.27;;
57047;SDS011;42934;54.294;18.598;2023-02-15T02:07:30;28.65;;;16.25;;
57047;SDS011;42934;54.294;18.598;2023-02-15T02:10:03;31.88;;;16.23;;
57047;SDS011;42934;54.294;18.598;2023-02-15T02:12:33;31.13;;;16.15;;
57047;SDS011;42934;54.294;18.598;2023-02-15T02:15:08;30.73;;;16.02;;
57047;SDS011;42934;54.294;18.598;2023-02-15T02:17:40;33.15;;;16.05;;
57047;SDS011;42934;54.294;18.598;2023-02-15T02:20:38;30.70;;;16.20;;
57047;SDS011;42934;54.294;18.598;2023-02-15T02:23:33;27.85;;;15.10;;
57047;SDS011;42934;54.294;18.598;2023-02-15T02:35:38;27.08;;;15.35;;
57047;SDS011;42934;54.294;18.598;2023-02-15T02:38:16;29.25;;;16.17;;
57047;SDS011;42934;54.294;18.598;2023-02-15T02:43:29;20.88;;;12.30;;
57047;SDS011;42934;54.294;18.598;2023-02-15T02:46:05;25.35;;;14.05;;
57047;SDS011;42934;54.294;18.598;2023-02-15T02:48:40;26.42;;;14.70;;
57047;SDS011;42934;54.294;18.598;2023-02-15T02:51:11;26.10;;;14.52;;
57047;SDS011;42934;54.294;18.598;2023-02-15T02:53:41;28.48;;;14.95;;
57047;SDS011;42934;54.294;18.598;2023-02-15T02:56:14;29.20;;;15.75;;
57047;SDS011;42934;54.294;18.598;2023-02-15T02:58:49;26.80;;;14.45;;
57047;SDS011;42934;54.294;18.598;2023-02-15T03:01:24;23.08;;;12.52;;
57047;SDS011;42934;54.294;18.598;2023-02-15T03:03:58;22.58;;;13.23;;
57047;SDS011;42934;54.294;18.598;2023-02-15T03:06:33;22.25;;;13.57;;
57047;SDS011;42934;54.294;18.598;2023-02-15T03:09:09;22.00;;;13.05;;
57047;SDS011;42934;54.294;18.598;2023-02-15T03:11:43;25.80;;;13.90;;
57047;SDS011;42934;54.294;18.598;2023-02-15T03:14:14;24.95;;;14.05;;
57047;SDS011;42934;54.294;18.598;2023-02-15T03:16:46;23.02;;;13.85;;
57047;SDS011;42934;54.294;18.598;2023-02-15T03:19:20;25.23;;;14.30;;
57047;SDS011;42934;54.294;18.598;2023-02-15T03:21:54;23.25;;;13.43;;
57047;SDS011;42934;54.294;18.598;2023-02-15T03:24:37;20.95;;;13.05;;
57047;SDS011;42934;54.294;18.598;2023-02-15T03:27:11;23.58;;;13.57;;
57047;SDS011;42934;54.294;18.598;2023-02-15T03:29:45;25.13;;;14.32;;
57047;SDS011;42934;54.294;18.598;2023-02-15T03:32:18;26.13;;;14.30;;
57047;SDS011;42934;54.294;18.598;2023-02-15T03:34:50;23.40;;;13.93;;
57047;SDS011;42934;54.294;18.598;2023-02-15T03:39:55;22.20;;;11.57;;
57047;SDS011;42934;54.294;18.598;2023-02-15T03:42:47;22.77;;;13.38;;
57047;SDS011;42934;54.294;18.598;2023-02-15T03:45:22;27.27;;;13.52;;
57047;SDS011;42934;54.294;18.598;2023-02-15T03:47:55;24.98;;;13.68;;
57047;SDS011;42934;54.294;18.598;2023-02-15T03:50:30;25.42;;;14.23;;
57047;SDS011;42934;54.294;18.598;2023-02-15T03:53:21;21.05;;;13.18;;
57047;SDS011;42934;54.294;18.598;2023-02-15T03:55:53;22.40;;;13.65;;
57047;SDS011;42934;54.294;18.598;2023-02-15T03:58:23;25.30;;;13.73;;
57047;SDS011;42934;54.294;18.598;2023-02-15T04:01:10;21.50;;;12.82;;
57047;SDS011;42934;54.294;18.598;2023-02-15T04:04:06;23.40;;;13.20;;
57047;SDS011;42934;54.294;18.598;2023-02-15T04:06:40;23.60;;;14.10;;
57047;SDS011;42934;54.294;18.598;2023-02-15T04:09:09;25.30;;;14.30;;
57047;SDS011;42934;54.294;18.598;2023-02-15T04:11:57;23.15;;;13.85;;
57047;SDS011;42934;54.294;18.598;2023-02-15T04:14:26;27.98;;;14.93;;
57047;SDS011;42934;54.294;18.598;2023-02-15T04:17:13;25.02;;;13.85;;
57047;SDS011;42934;54.294;18.598;2023-02-15T04:19:42;26.75;;;14.30;;
57047;SDS011;42934;54.294;18.598;2023-02-15T04:22:30;22.13;;;13.75;;
57047;SDS011;42934;54.294;18.598;2023-02-15T04:25:16;25.42;;;14.05;;
57047;SDS011;42934;54.294;18.598;2023-02-15T04:27:47;26.03;;;13.97;;
57047;SDS011;42934;54.294;18.598;2023-02-15T04:30:18;24.75;;;13.82;;
57047;SDS011;42934;54.294;18.598;2023-02-15T04:32:49;27.38;;;15.20;;
57047;SDS011;42934;54.294;18.598;2023-02-15T04:35:18;27.77;;;14.88;;
57047;SDS011;42934;54.294;18.598;2023-02-15T04:37:49;23.10;;;14.00;;
57047;SDS011;42934;54.294;18.598;2023-02-15T04:40:18;23.35;;;13.70;;
57047;SDS011;42934;54.294;18.598;2023-02-15T04:42:48;27.38;;;14.85;;
57047;SDS011;42934;54.294;18.598;2023-02-15T04:45:17;29.70;;;15.45;;
57047;SDS011;42934;54.294;18.598;2023-02-15T04:47:46;31.45;;;14.45;;
57047;SDS011;42934;54.294;18.598;2023-02-15T04:50:16;31.55;;;15.10;;
57047;SDS011;42934;54.294;18.598;2023-02-15T04:52:45;29.43;;;15.17;;
57047;SDS011;42934;54.294;18.598;2023-02-15T04:55:15;23.88;;;14.30;;
57047;SDS011;42934;54.294;18.598;2023-02-15T04:57:45;26.83;;;14.27;;
57047;SDS011;42934;54.294;18.598;2023-02-15T05:00:14;26.63;;;14.00;;
57047;SDS011;42934;54.294;18.598;2023-02-15T05:02:44;23.10;;;14.43;;
57047;SDS011;42934;54.294;18.598;2023-02-15T05:05:13;26.58;;;14.45;;
57047;SDS011;42934;54.294;18.598;2023-02-15T05:07:43;32.70;;;15.85;;
57047;SDS011;42934;54.294;18.598;2023-02-15T05:10:12;31.85;;;15.45;;
57047;SDS011;42934;54.294;18.598;2023-02-15T05:12:42;31.05;;;15.88;;
57047;SDS011;42934;54.294;18.598;2023-02-15T05:15:11;46.00;;;18.08;;
57047;SDS011;42934;54.294;18.598;2023-02-15T05:17:40;56.57;;;21.33;;
57047;SDS011;42934;54.294;18.598;2023-02-15T05:20:09;53.35;;;19.65;;
57047;SDS011;42934;54.294;18.598;2023-02-15T05:22:39;53.17;;;19.65;;
57047;SDS011;42934;54.294;18.598;2023-02-15T05:25:08;35.13;;;16.35;;
57047;SDS011;42934;54.294;18.598;2023-02-15T05:27:57;30.60;;;16.00;;
57047;SDS011;42934;54.294;18.598;2023-02-15T05:30:43;25.63;;;14.63;;
57047;SDS011;42934;54.294;18.598;2023-02-15T05:33:13;25.58;;;12.88;;
57047;SDS011;42934;54.294;18.598;2023-02-15T05:35:42;27.45;;;14.80;;
57047;SDS011;42934;54.294;18.598;2023-02-15T05:38:11;28.73;;;15.15;;
57047;SDS011;42934;54.294;18.598;2023-02-15T05:40:40;28.15;;;14.63;;
57047;SDS011;42934;54.294;18.598;2023-02-15T05:43:10;25.77;;;15.10;;
57047;SDS011;42934;54.294;18.598;2023-02-15T05:48:12;28.02;;;14.48;;
57047;SDS011;42934;54.294;18.598;2023-02-15T05:50:40;31.20;;;14.30;;
57047;SDS011;42934;54.294;18.598;2023-02-15T05:53:10;27.60;;;14.67;;
57047;SDS011;42934;54.294;18.598;2023-02-15T05:55:39;27.75;;;15.20;;
57047;SDS011;42934;54.294;18.598;2023-02-15T05:58:08;28.10;;;14.95;;
57047;SDS011;42934;54.294;18.598;2023-02-15T06:03:08;25.75;;;14.75;;
57047;SDS011;42934;54.294;18.598;2023-02-15T06:05:37;27.00;;;15.07;;
57047;SDS011;42934;54.294;18.598;2023-02-15T06:08:06;22.70;;;13.38;;
57047;SDS011;42934;54.294;18.598;2023-02-15T06:10:35;27.00;;;16.20;;
57047;SDS011;42934;54.294;18.598;2023-02-15T06:13:04;26.80;;;15.68;;
57047;SDS011;42934;54.294;18.598;2023-02-15T06:15:34;28.90;;;16.42;;
57047;SDS011;42934;54.294;18.598;2023-02-15T06:18:04;28.85;;;15.52;;
57047;SDS011;42934;54.294;18.598;2023-02-15T06:20:32;27.30;;;15.38;;
57047;SDS011;42934;54.294;18.598;2023-02-15T06:23:02;25.73;;;14.55;;
57047;SDS011;42934;54.294;18.598;2023-02-15T06:25:30;27.05;;;15.65;;
57047;SDS011;42934;54.294;18.598;2023-02-15T06:28:02;24.27;;;15.30;;
57047;SDS011;42934;54.294;18.598;2023-02-15T06:30:32;28.95;;;14.90;;
57047;SDS011;42934;54.294;18.598;2023-02-15T06:33:02;26.70;;;14.93;;
57047;SDS011;42934;54.294;18.598;2023-02-15T06:35:31;28.42;;;14.90;;
57047;SDS011;42934;54.294;18.598;2023-02-15T06:38:00;25.35;;;14.57;;
57047;SDS011;42934;54.294;18.598;2023-02-15T06:40:29;27.50;;;15.25;;
57047;SDS011;42934;54.294;18.598;2023-02-15T06:42:58;27.90;;;15.95;;
57047;SDS011;42934;54.294;18.598;2023-02-15T06:45:27;26.92;;;15.65;;
57047;SDS011;42934;54.294;18.598;2023-02-15T06:47:58;27.60;;;15.57;;
57047;SDS011;42934;54.294;18.598;2023-02-15T06:50:27;29.25;;;16.25;;
57047;SDS011;42934;54.294;18.598;2023-02-15T06:52:56;29.45;;;17.08;;
57047;SDS011;42934;54.294;18.598;2023-02-15T06:55:25;27.77;;;16.30;;
57047;SDS011;42934;54.294;18.598;2023-02-15T06:57:54;31.03;;;16.50;;
57047;SDS011;42934;54.294;18.598;2023-02-15T07:00:23;26.40;;;16.33;;
57047;SDS011;42934;54.294;18.598;2023-02-15T07:02:53;28.30;;;15.07;;
57047;SDS011;42934;54.294;18.598;2023-02-15T07:05:26;27.13;;;14.65;;
57047;SDS011;42934;54.294;18.598;2023-02-15T07:07:58;34.20;;;15.55;;
57047;SDS011;42934;54.294;18.598;2023-02-15T07:10:28;29.50;;;15.73;;
57047;SDS011;42934;54.294;18.598;2023-02-15T07:12:57;32.40;;;15.90;;
57047;SDS011;42934;54.294;18.598;2023-02-15T07:15:25;26.88;;;14.93;;
57047;SDS011;42934;54.294;18.598;2023-02-15T07:17:54;25.30;;;15.00;;
57047;SDS011;42934;54.294;18.598;2023-02-15T07:20:25;28.95;;;15.65;;
57047;SDS011;42934;54.294;18.598;2023-02-15T07:22:55;27.77;;;14.85;;
57047;SDS011;42934;54.294;18.598;2023-02-15T07:25:24;26.67;;;15.27;;
57047;SDS011;42934;54.294;18.598;2023-02-15T07:27:55;31.80;;;15.93;;
57047;SDS011;42934;54.294;18.598;2023-02-15T07:30:25;32.80;;;14.55;;
57047;SDS011;42934;54.294;18.598;2023-02-15T07:32:54;29.60;;;15.80;;
57047;SDS011;42934;54.294;18.598;2023-02-15T07:35:47;39.40;;;16.40;;
57047;SDS011;42934;54.294;18.598;2023-02-15T07:38:17;27.50;;;14.68;;
57047;SDS011;42934;54.294;18.598;2023-02-15T07:40:46;28.75;;;13.73;;
57047;SDS011;42934;54.294;18.598;2023-02-15T07:43:16;25.93;;;13.90;;
57047;SDS011;42934;54.294;18.598;2023-02-15T07:45:45;32.20;;;15.38;;
57047;SDS011;42934;54.294;18.598;2023-02-15T07:48:14;31.55;;;15.15;;
57047;SDS011;42934;54.294;18.598;2023-02-15T07:50:44;26.83;;;13.88;;
57047;SDS011;42934;54.294;18.598;2023-02-15T07:53:14;29.65;;;13.85;;
57047;SDS011;42934;54.294;18.598;2023-02-15T07:55:43;23.20;;;12.82;;
57047;SDS011;42934;54.294;18.598;2023-02-15T07:58:12;23.60;;;13.23;;
57047;SDS011;42934;54.294;18.598;2023-02-15T08:00:41;26.27;;;13.55;;
57047;SDS011;42934;54.294;18.598;2023-02-15T08:03:28;29.92;;;13.75;;
57047;SDS011;42934;54.294;18.598;2023-02-15T08:05:59;27.48;;;14.73;;
57047;SDS011;42934;54.294;18.598;2023-02-15T08:08:29;25.88;;;13.60;;
57047;SDS011;42934;54.294;18.598;2023-02-15T08:10:59;24.42;;;14.35;;
57047;SDS011;42934;54.294;18.598;2023-02-15T08:13:47;21.00;;;12.88;;
57047;SDS011;42934;54.294;18.598;2023-02-15T08:16:27;24.25;;;13.38;;
57047;SDS011;42934;54.294;18.598;2023-02-15T08:18:58;26.02;;;14.00;;
57047;SDS011;42934;54.294;18.598;2023-02-15T08:21:31;24.25;;;13.27;;
57047;SDS011;42934;54.294;18.598;2023-02-15T08:24:01;26.65;;;13.95;;
57047;SDS011;42934;54.294;18.598;2023-02-15T08:26:31;30.38;;;14.25;;
57047;SDS011;42934;54.294;18.598;2023-02-15T08:29:02;25.25;;;12.82;;
57047;SDS011;42934;54.294;18.598;2023-02-15T08:31:31;27.00;;;13.90;;
57047;SDS011;42934;54.294;18.598;2023-02-15T08:34:01;31.08;;;14.63;;
57047;SDS011;42934;54.294;18.598;2023-02-15T08:36:32;30.50;;;14.87;;
57047;SDS011;42934;54.294;18.598;2023-02-15T08:39:03;27.45;;;14.40;;
57047;SDS011;42934;54.294;18.598;2023-02-15T08:41:34;29.42;;;15.73;;
57047;SDS011;42934;54.294;18.598;2023-02-15T08:44:06;25.08;;;14.32;;
57047;SDS011;42934;54.294;18.598;2023-02-15T08:46:36;26.13;;;14.45;;
57047;SDS011;42934;54.294;18.598;2023-02-15T08:49:07;24.52;;;14.15;;
57047;SDS011;42934;54.294;18.598;2023-02-15T08:51:38;31.55;;;15.25;;
57047;SDS011;42934;54.294;18.598;2023-02-15T08:54:08;30.25;;;15.65;;
57047;SDS011;42934;54.294;18.598;2023-02-15T08:56:40;25.25;;;14.23;;
57047;SDS011;42934;54.294;18.598;2023-02-15T08:59:12;26.67;;;14.68;;
57047;SDS011;42934;54.294;18.598;2023-02-15T09:01:43;27.40;;;14.23;;
57047;SDS011;42934;54.294;18.598;2023-02-15T09:04:13;26.80;;;14.00;;
57047;SDS011;42934;54.294;18.598;2023-02-15T09:06:44;28.38;;;14.02;;
57047;SDS011;42934;54.294;18.598;2023-02-15T09:09:15;27.42;;;14.68;;
57047;SDS011;42934;54.294;18.598;2023-02-15T09:11:45;24.75;;;13.43;;
57047;SDS011;42934;54.294;18.598;2023-02-15T09:14:22;27.08;;;14.13;;
57047;SDS011;42934;54.294;18.598;2023-02-15T09:16:51;25.63;;;14.95;;
57047;SDS011;42934;54.294;18.598;2023-02-15T09:19:23;25.58;;;13.55;;
57047;SDS011;42934;54.294;18.598;2023-02-15T09:21:54;26.88;;;14.43;;
57047;SDS011;42934;54.294;18.598;2023-02-15T09:24:25;26.63;;;14.27;;
57047;SDS011;42934;54.294;18.598;2023-02-15T09:26:53;24.13;;;13.35;;
57047;SDS011;42934;54.294;18.598;2023-02-15T09:29:23;29.83;;;14.10;;
57047;SDS011;42934;54.294;18.598;2023-02-15T09:31:52;25.40;;;12.13;;
57047;SDS011;42934;54.294;18.598;2023-02-15T09:34:21;26.83;;;14.10;;
57047;SDS011;42934;54.294;18.598;2023-02-15T09:36:51;24.33;;;13.45;;
57047;SDS011;42934;54.294;18.598;2023-02-15T09:39:22;21.47;;;11.93;;
57047;SDS011;42934;54.294;18.598;2023-02-15T09:41:59;21.10;;;11.48;;
57047;SDS011;42934;54.294;18.598;2023-02-15T09:45:12;21.70;;;11.93;;
57047;SDS011;42934;54.294;18.598;2023-02-15T09:50:53;19.90;;;11.40;;
57047;SDS011;42934;54.294;18.598;2023-02-15T09:53:45;19.77;;;11.13;;
57047;SDS011;42934;54.294;18.598;2023-02-15T09:56:27;23.15;;;12.40;;
57047;SDS011;42934;54.294;18.598;2023-02-15T09:59:05;21.55;;;12.35;;
57047;SDS011;42934;54.294;18.598;2023-02-15T10:01:47;21.63;;;12.38;;
57047;SDS011;42934;54.294;18.598;2023-02-15T10:04:38;23.27;;;12.88;;
57047;SDS011;42934;54.294;18.598;2023-02-15T10:07:18;22.35;;;12.05;;
57047;SDS011;42934;54.294;18.598;2023-02-15T10:10:02;28.95;;;12.70;;
57047;SDS011;42934;54.294;18.598;2023-02-15T10:12:45;20.77;;;13.30;;
57047;SDS011;42934;54.294;18.598;2023-02-15T10:15:28;22.10;;;11.57;;
57047;SDS011;42934;54.294;18.598;2023-02-15T10:18:23;22.73;;;12.05;;
57047;SDS011;42934;54.294;18.598;2023-02-15T10:21:14;22.10;;;12.93;;
57047;SDS011;42934;54.294;18.598;2023-02-15T10:23:56;26.27;;;13.23;;
57047;SDS011;42934;54.294;18.598;2023-02-15T10:26:45;23.55;;;13.35;;
57047;SDS011;42934;54.294;18.598;2023-02-15T10:29:18;24.38;;;13.80;;
57047;SDS011;42934;54.294;18.598;2023-02-15T10:31:57;21.88;;;13.20;;
57047;SDS011;42934;54.294;18.598;2023-02-15T10:34:35;27.77;;;13.85;;
57047;SDS011;42934;54.294;18.598;2023-02-15T10:37:30;22.50;;;12.77;;
57047;SDS011;42934;54.294;18.598;2023-02-15T10:40:18;22.35;;;12.15;;
57047;SDS011;42934;54.294;18.598;2023-02-15T10:42:57;22.42;;;13.60;;
57047;SDS011;42934;54.294;18.598;2023-02-15T10:45:54;21.38;;;13.02;;
57047;SDS011;42934;54.294;18.598;2023-02-15T10:48:45;24.25;;;13.70;;
57047;SDS011;42934;54.294;18.598;2023-02-15T10:51:27;21.65;;;12.63;;
57047;SDS011;42934;54.294;18.598;2023-02-15T10:54:14;21.38;;;13.50;;
57047;SDS011;42934;54.294;18.598;2023-02-15T10:56:59;24.98;;;15.07;;
57047;SDS011;42934;54.294;18.598;2023-02-15T10:59:39;30.40;;;15.02;;
57047;SDS011;42934;54.294;18.598;2023-02-15T11:02:25;27.27;;;15.88;;
57047;SDS011;42934;54.294;18.598;2023-02-15T11:05:14;28.38;;;15.63;;
57047;SDS011;42934;54.294;18.598;2023-02-15T11:07:54;26.65;;;16.23;;
57047;SDS011;42934;54.294;18.598;2023-02-15T11:10:28;29.90;;;15.75;;
57047;SDS011;42934;54.294;18.598;2023-02-15T11:13:02;26.73;;;15.63;;
57047;SDS011;42934;54.294;18.598;2023-02-15T11:15:38;27.10;;;15.45;;
57047;SDS011;42934;54.294;18.598;2023-02-15T11:18:13;28.15;;;16.25;;
57047;SDS011;42934;54.294;18.598;2023-02-15T11:20:49;31.05;;;17.17;;
57047;SDS011;42934;54.294;18.598;2023-02-15T11:23:22;28.83;;;16.40;;
57047;SDS011;42934;54.294;18.598;2023-02-15T11:25:55;32.20;;;16.95;;
57047;SDS011;42934;54.294;18.598;2023-02-15T11:28:28;31.70;;;15.10;;
57047;SDS011;42934;54.294;18.598;2023-02-15T11:31:02;31.77;;;16.85;;
57047;SDS011;42934;54.294;18.598;2023-02-15T11:33:43;35.00;;;17.73;;
57047;SDS011;42934;54.294;18.598;2023-02-15T11:36:16;27.67;;;16.30;;
57047;SDS011;42934;54.294;18.598;2023-02-15T11:38:50;27.02;;;15.85;;
57047;SDS011;42934;54.294;18.598;2023-02-15T11:41:25;28.63;;;15.88;;
57047;SDS011;42934;54.294;18.598;2023-02-15T11:43:58;30.00;;;16.95;;
57047;SDS011;42934;54.294;18.598;2023-02-15T11:46:33;31.05;;;16.63;;
57047;SDS011;42934;54.294;18.598;2023-02-15T11:49:07;28.13;;;16.05;;
57047;SDS011;42934;54.294;18.598;2023-02-15T11:51:48;29.73;;;17.08;;
57047;SDS011;42934;54.294;18.598;2023-02-15T11:54:19;31.40;;;17.33;;
57047;SDS011;42934;54.294;18.598;2023-02-15T11:56:54;30.85;;;18.13;;
57047;SDS011;42934;54.294;18.598;2023-02-15T11:59:28;27.33;;;17.15;;
57047;SDS011;42934;54.294;18.598;2023-02-15T12:02:07;31.10;;;18.30;;
57047;SDS011;42934;54.294;18.598;2023-02-15T12:04:46;33.65;;;17.65;;
57047;SDS011;42934;54.294;18.598;2023-02-15T12:07:20;26.70;;;15.70;;
57047;SDS011;42934;54.294;18.598;2023-02-15T12:09:54;29.77;;;16.77;;
57047;SDS011;42934;54.294;18.598;2023-02-15T12:12:33;27.30;;;16.33;;
57047;SDS011;42934;54.294;18.598;2023-02-15T12:15:03;31.08;;;16.63;;
57047;SDS011;42934;54.294;18.598;2023-02-15T12:17:34;29.85;;;17.05;;
57047;SDS011;42934;54.294;18.598;2023-02-15T12:20:20;30.60;;;16.48;;
57047;SDS011;42934;54.294;18.598;2023-02-15T12:22:59;27.80;;;16.55;;
57047;SDS011;42934;54.294;18.598;2023-02-15T12:25:33;26.25;;;16.00;;
57047;SDS011;42934;54.294;18.598;2023-02-15T12:28:04;30.83;;;16.52;;
57047;SDS011;42934;54.294;18.598;2023-02-15T12:30:51;28.50;;;16.85;;
57047;SDS011;42934;54.294;18.598;2023-02-15T12:33:25;25.85;;;15.23;;
57047;SDS011;42934;54.294;18.598;2023-02-15T12:36:01;28.42;;;16.55;;
57047;SDS011;42934;54.294;18.598;2023-02-15T12:38:32;31.40;;;16.40;;
57047;SDS011;42934;54.294;18.598;2023-02-15T12:41:03;26.55;;;16.15;;
57047;SDS011;42934;54.294;18.598;2023-02-15T12:43:47;27.42;;;15.95;;
57047;SDS011;42934;54.294;18.598;2023-02-15T12:46:33;31.13;;;17.20;;
57047;SDS011;42934;54.294;18.598;2023-02-15T12:49:10;27.60;;;15.73;;
57047;SDS011;42934;54.294;18.598;2023-02-15T12:51:50;32.10;;;17.35;;
57047;SDS011;42934;54.294;18.598;2023-02-15T12:54:36;33.95;;;17.52;;
57047;SDS011;42934;54.294;18.598;2023-02-15T12:57:14;27.33;;;17.23;;
57047;SDS011;42934;54.294;18.598;2023-02-15T12:59:53;28.73;;;17.27;;
57047;SDS011;42934;54.294;18.598;2023-02-15T13:02:25;27.33;;;14.27;;
57047;SDS011;42934;54.294;18.598;2023-02-15T13:05:13;29.58;;;16.63;;
57047;SDS011;42934;54.294;18.598;2023-02-15T13:07:49;28.15;;;15.40;;
57047;SDS011;42934;54.294;18.598;2023-02-15T13:10:21;27.90;;;16.60;;
57047;SDS011;42934;54.294;18.598;2023-02-15T13:12:53;26.25;;;16.35;;
57047;SDS011;42934;54.294;18.598;2023-02-15T13:15:28;29.52;;;17.13;;
57047;SDS011;42934;54.294;18.598;2023-02-15T13:18:02;30.30;;;17.13;;
57047;SDS011;42934;54.294;18.598;2023-02-15T13:20:38;29.05;;;17.15;;
57047;SDS011;42934;54.294;18.598;2023-02-15T13:23:13;27.88;;;16.27;;
57047;SDS011;42934;54.294;18.598;2023-02-15T13:25:54;32.05;;;18.00;;
57047;SDS011;42934;54.294;18.598;2023-02-15T13:28:27;32.35;;;17.92;;
57047;SDS011;42934;54.294;18.598;2023-02-15T13:31:05;30.83;;;18.55;;
57047;SDS011;42934;54.294;18.598;2023-02-15T13:33:43;33.75;;;17.98;;
57047;SDS011;42934;54.294;18.598;2023-02-15T13:36:18;27.40;;;15.95;;
57047;SDS011;42934;54.294;18.598;2023-02-15T13:39:03;25.15;;;15.90;;
57047;SDS011;42934;54.294;18.598;2023-02-15T13:41:46;34.17;;;17.92;;
57047;SDS011;42934;54.294;18.598;2023-02-15T13:44:40;29.77;;;16.25;;
57047;SDS011;42934;54.294;18.598;2023-02-15T13:47:34;29.42;;;18.13;;
57047;SDS011;42934;54.294;18.598;2023-02-15T13:50:20;27.58;;;16.50;;
57047;SDS011;42934;54.294;18.598;2023-02-15T13:53:02;31.02;;;19.25;;
57047;SDS011;42934;54.294;18.598;2023-02-15T13:55:50;29.35;;;17.75;;
57047;SDS011;42934;54.294;18.598;2023-02-15T14:01:22;30.13;;;17.63;;
57047;SDS011;42934;54.294;18.598;2023-02-15T14:04:12;32.20;;;19.08;;
57047;SDS011;42934;54.294;18.598;2023-02-15T14:06:58;32.05;;;17.95;;
57047;SDS011;42934;54.294;18.598;2023-02-15T14:10:01;30.15;;;17.40;;
57047;SDS011;42934;54.294;18.598;2023-02-15T14:12:53;26.40;;;15.18;;
57047;SDS011;42934;54.294;18.598;2023-02-15T14:15:34;32.70;;;18.75;;
57047;SDS011;42934;54.294;18.598;2023-02-15T14:18:14;29.70;;;17.45;;
57047;SDS011;42934;54.294;18.598;2023-02-15T14:20:53;34.70;;;19.85;;
57047;SDS011;42934;54.294;18.598;2023-02-15T14:23:37;28.80;;;17.73;;
57047;SDS011;42934;54.294;18.598;2023-02-15T14:26:16;30.98;;;18.63;;
57047;SDS011;42934;54.294;18.598;2023-02-15T14:28:58;34.53;;;18.77;;
57047;SDS011;42934;54.294;18.598;2023-02-15T14:31:39;31.98;;;19.95;;
57047;SDS011;42934;54.294;18.598;2023-02-15T14:34:16;35.00;;;19.65;;
57047;SDS011;42934;54.294;18.598;2023-02-15T14:36:50;37.75;;;21.88;;
57047;SDS011;42934;54.294;18.598;2023-02-15T14:39:26;37.45;;;20.70;;
57047;SDS011;42934;54.294;18.598;2023-02-15T14:42:23;42.17;;;22.52;;
57047;SDS011;42934;54.294;18.598;2023-02-15T14:45:01;39.50;;;22.55;;
57047;SDS011;42934;54.294;18.598;2023-02-15T14:47:44;39.25;;;21.98;;
57047;SDS011;42934;54.294;18.598;2023-02-15T14:50:38;37.03;;;21.63;;
57047;SDS011;42934;54.294;18.598;2023-02-15T14:53:23;39.80;;;22.92;;
57047;SDS011;42934;54.294;18.598;2023-02-15T14:56:13;36.85;;;20.30;;
57047;SDS011;42934;54.294;18.598;2023-02-15T15:01:52;41.25;;;23.17;;
57047;SDS011;42934;54.294;18.598;2023-02-15T15:04:27;39.47;;;21.70;;
57047;SDS011;42934;54.294;18.598;2023-02-15T15:07:03;39.63;;;22.50;;
57047;SDS011;42934;54.294;18.598;2023-02-15T15:09:37;36.67;;;19.73;;
57047;SDS011;42934;54.294;18.598;2023-02-15T15:12:18;39.85;;;22.17;;
57047;SDS011;42934;54.294;18.598;2023-02-15T15:22:35;35.75;;;20.77;;
57047;SDS011;42934;54.294;18.598;2023-02-15T15:25:08;41.55;;;22.67;;
57047;SDS011;42934;54.294;18.598;2023-02-15T15:27:44;46.10;;;23.27;;
57047;SDS011;42934;54.294;18.598;2023-02-15T15:33:43;37.70;;;21.65;;
57047;SDS011;42934;54.294;18.598;2023-02-15T15:36:50;42.08;;;21.35;;
57047;SDS011;42934;54.294;18.598;2023-02-15T15:43:02;42.00;;;22.45;;
57047;SDS011;42934;54.294;18.598;2023-02-15T15:46:06;40.55;;;22.27;;